Pinedale, WY

5:05 AM MDT on March 30, 2015 (GMT -0600)
Wenz | | Change Station
CLOSE
Current Station
Airport
Location: Pinedale,
Elevation: 7087 ft
Nearby Weather Stations

Elev 7087 ft 42.80 °N, 109.81 °W | Updated 10 minutes ago

Scattered Clouds
Scattered Clouds
27 °F
Feels Like 27 °F
N
0
Wind Variable Wind from North

Today
High -- | Low -- °F
--% Chance of Precip.
Yesterday
High -- | Low -- °F
Precip. -- in
7:05 AM 7:42 PM
Waxing Gibbous, 79% visible
Pressure 30.26 in
Visibility 10.0 miles
Clouds Scattered Clouds 10000 ft
Scattered Clouds 12000 ft
Dew Point 21 °F
Humidity 80%
Rainfall 0.00 in
Snow Depth Not available.
UV 0 out of 12
Pollen 7.70 out of 12
Air Quality Not available.
Flu Activity Not available.
METAR KPNA 301055Z AUTO 00000KT 10SM SCT100 SCT120 M03/M06 A3026 RMK AO2

More Conditions Fewer Conditions

Pressure 30.26 in
Visibility 10.0 miles
Clouds Scattered Clouds 10000 ft
Scattered Clouds 12000 ft
Dew Point 21 °F
Humidity 80%
Rainfall 0.00 in
Snow Depth Not available.
UV 0 out of 12
Pollen 7.70 out of 12
Air Quality Not available.
Flu Activity Not available.
METAR KPNA 301055Z AUTO 00000KT 10SM SCT100 SCT120 M03/M06 A3026 RMK AO2

More Conditions Fewer Conditions

10-Day Weather Forecast

Almanac

Astronomy

Mar. 30, 2015 Rise Set
Actual Time
Civil Twilight
Nautical Twilight
Astronomical Twilight
Moon
Length of Visible Light
Length of Day
Tomorrow will be .
, % of the Moon is Illuminated

Today's Extremes

State Highs State Lows

Community

WunderPhotos

Upload Photos

1,809,456 photos uploaded!

WunderBlogs® & News

Nearby

Air Quality

  Air Quality AQ Index Pollutant
Not available.

Snow Depth

Station Depth Elevation

Earthquake Activity

City Distance Mag. Time & Date
Minimum magnitude displayed is 2.5.

Coastal Water Temperatures

Place Temperature

Stations

Nearby Weather Stations

Station Location Temp. Windchill Dew Point Humidity Wind Precip. Elev Updated Type